Terminal Aerodrome Forecast
Issued by NWS

Home | Current Version | Previous Version | Graphics & Text | Print | Product List | Glossary On
Versions: 1 2 3 4 5 6 7 8 9 10 11 12 13 14 15 16 17 18 19 20 21 22 23 24 25 26 27
627
FTUS43 KBIS 201851 AAA
TAFMOT
TAF AMD
KMOT 201851Z 2019/2118 35011KT P6SM BKN008 OVC013
     FM202000 35013KT P6SM BKN015
     FM202200 35013KT P6SM OVC020
     FM210000 01008KT P6SM FEW025
     FM210300 06004KT P6SM SKC
     FM210800 12004KT P6SM VCFG FEW150=

USA.gov is the U.S. government's official web portal to all federal, state and local government web resources and services.